createdAt,value
2023-03-27T00:01:27.940Z,1.27
2023-03-27T00:03:55.668Z,1.50
2023-03-27T00:06:24.954Z,2.35
2023-03-27T00:08:52.488Z,1.77
2023-03-27T00:11:21.458Z,2.63
2023-03-27T00:13:54.453Z,2.00
2023-03-27T00:16:24.037Z,1.83
2023-03-27T00:18:51.400Z,0.90
2023-03-27T00:21:19.369Z,1.23
2023-03-27T00:23:46.990Z,1.40
2023-03-27T00:26:14.438Z,1.27
2023-03-27T00:28:42.170Z,2.35
2023-03-27T00:31:13.766Z,1.48
2023-03-27T00:33:41.476Z,1.73
2023-03-27T00:36:09.632Z,2.38
2023-03-27T00:38:37.261Z,1.33
2023-03-27T00:41:05.066Z,1.70
2023-03-27T00:43:36.229Z,1.38
2023-03-27T00:46:27.857Z,0.95
2023-03-27T00:48:56.269Z,1.77
2023-03-27T00:51:25.296Z,1.17
2023-03-27T00:53:53.842Z,2.20
2023-03-27T00:56:21.949Z,1.40
2023-03-27T00:59:00.252Z,3.15
2023-03-27T01:01:28.900Z,3.65
2023-03-27T01:04:01.882Z,1.30
2023-03-27T01:06:30.478Z,2.28
2023-03-27T01:08:57.590Z,1.80
2023-03-27T01:11:55.382Z,1.70
2023-03-27T01:14:33.616Z,1.70
2023-03-27T01:17:09.409Z,2.10
2023-03-27T01:19:57.784Z,1.90
2023-03-27T01:22:47.086Z,1.30
2023-03-27T01:25:32.726Z,1.10
2023-03-27T01:28:05.487Z,1.27
2023-03-27T01:30:55.569Z,1.17
2023-03-27T01:33:41.589Z,1.02
2023-03-27T01:36:46.885Z,1.92
2023-03-27T01:39:27.403Z,1.30
2023-03-27T01:42:13.390Z,1.55
2023-03-27T01:45:06.957Z,1.50
2023-03-27T01:47:36.412Z,1.05
2023-03-27T01:50:31.821Z,1.23
2023-03-27T01:53:15.560Z,1.70
2023-03-27T01:55:47.636Z,1.23
2023-03-27T01:58:19.250Z,1.08
2023-03-27T02:00:53.606Z,0.88
2023-03-27T02:03:41.825Z,2.10
2023-03-27T02:06:12.261Z,0.90
2023-03-27T02:08:53.505Z,1.25
2023-03-27T02:11:24.579Z,1.10
2023-03-27T02:13:59.479Z,1.80
2023-03-27T02:16:34.350Z,1.25
2023-03-27T02:19:08.318Z,1.88
2023-03-27T02:21:35.358Z,2.42
2023-03-27T02:24:03.127Z,1.02
2023-03-27T02:26:30.710Z,2.35
2023-03-27T02:29:19.653Z,2.75
2023-03-27T02:31:50.391Z,2.25
2023-03-27T02:34:44.422Z,2.17
2023-03-27T02:37:46.603Z,1.55
2023-03-27T02:40:45.645Z,1.67
2023-03-27T02:43:21.482Z,3.05
2023-03-27T02:46:05.446Z,1.73
2023-03-27T02:48:46.587Z,1.42
2023-03-27T02:51:21.163Z,3.70
2023-03-27T02:53:59.894Z,1.50
2023-03-27T02:56:32.156Z,1.20
2023-03-27T02:59:13.201Z,2.67
2023-03-27T03:01:41.092Z,2.22
2023-03-27T03:04:08.466Z,1.42
2023-03-27T03:06:35.785Z,2.55
2023-03-27T03:09:07.131Z,2.15
2023-03-27T03:11:35.721Z,1.55
2023-03-27T03:14:03.059Z,1.52
2023-03-27T03:16:30.313Z,2.42
2023-03-27T03:18:57.401Z,1.98
2023-03-27T03:21:24.455Z,1.88
2023-03-27T03:23:57.593Z,1.73
2023-03-27T03:26:27.091Z,2.17
2023-03-27T03:29:00.764Z,1.73
2023-03-27T03:31:43.080Z,1.30
2023-03-27T03:34:16.678Z,1.70
2023-03-27T03:36:49.232Z,1.77
2023-03-27T03:39:18.347Z,2.60
2023-03-27T03:41:47.989Z,2.08
2023-03-27T03:44:15.047Z,1.75
2023-03-27T03:46:42.005Z,2.45
2023-03-27T03:49:09.402Z,2.00
2023-03-27T03:51:38.059Z,1.90
2023-03-27T03:54:09.302Z,2.42
2023-03-27T03:56:37.288Z,2.22
2023-03-27T03:59:04.328Z,2.65
2023-03-27T04:01:31.417Z,2.00
2023-03-27T04:03:58.390Z,1.85
2023-03-27T04:06:25.776Z,2.13
2023-03-27T04:08:53.467Z,1.33
2023-03-27T04:11:21.123Z,2.22
2023-03-27T04:13:48.219Z,1.75
2023-03-27T04:16:15.567Z,2.47
2023-03-27T04:18:42.991Z,3.38
2023-03-27T04:21:18.074Z,1.77
2023-03-27T04:23:48.287Z,1.38
2023-03-27T04:26:16.248Z,1.70
2023-03-27T04:28:43.450Z,2.70
2023-03-27T04:31:11.109Z,1.83
2023-03-27T04:33:40.202Z,1.25
2023-03-27T04:36:08.933Z,1.38
2023-03-27T04:38:38.191Z,2.28
2023-03-27T04:41:06.180Z,1.30
2023-03-27T04:43:36.851Z,1.27
2023-03-27T04:46:08.089Z,1.60
2023-03-27T04:48:38.535Z,2.45
2023-03-27T04:51:06.815Z,1.33
2023-03-27T04:53:36.358Z,2.55
2023-03-27T04:56:04.428Z,1.40
2023-03-27T04:58:31.577Z,1.75
2023-03-27T05:00:58.810Z,1.42
2023-03-27T05:03:28.045Z,1.13
2023-03-27T05:05:55.260Z,0.82
2023-03-27T05:08:22.796Z,1.80
2023-03-27T05:10:49.795Z,0.55
2023-03-27T05:13:16.772Z,1.75
2023-03-27T05:15:44.057Z,0.63
2023-03-27T05:18:11.124Z,0.82
2023-03-27T05:20:38.235Z,1.05
2023-03-27T05:23:05.472Z,0.55
2023-03-27T05:25:33.671Z,0.75
2023-03-27T05:28:01.165Z,1.02
2023-03-27T05:30:29.235Z,1.48
2023-03-27T05:32:59.388Z,0.73
2023-03-27T05:35:28.508Z,0.80
2023-03-27T05:37:57.533Z,0.75
2023-03-27T05:40:26.146Z,0.93
2023-03-27T05:42:56.293Z,1.98
2023-03-27T05:45:24.308Z,0.73
2023-03-27T05:47:56.756Z,1.15
2023-03-27T05:50:29.306Z,0.82
2023-03-27T05:53:01.507Z,1.40
2023-03-27T05:55:28.764Z,0.90
2023-03-27T05:57:55.955Z,0.95
2023-03-27T06:00:26.189Z,0.90
2023-03-27T06:02:58.449Z,1.50
2023-03-27T06:05:29.860Z,1.23
2023-03-27T06:08:00.120Z,1.08
2023-03-27T06:10:29.000Z,0.77
2023-03-27T06:13:08.352Z,3.65
2023-03-27T06:15:38.448Z,1.40
2023-03-27T06:18:05.949Z,1.70
2023-03-27T06:20:35.295Z,1.20
2023-03-27T06:23:03.882Z,1.48
2023-03-27T06:25:33.500Z,1.80
2023-03-27T06:28:02.356Z,1.33
2023-03-27T06:30:30.398Z,1.83
2023-03-27T06:32:59.368Z,2.25
2023-03-27T06:35:31.896Z,0.77
2023-03-27T06:38:00.052Z,1.67
2023-03-27T06:40:29.113Z,2.13
2023-03-27T06:43:01.017Z,1.85
2023-03-27T06:45:34.199Z,1.30
2023-03-27T06:48:17.775Z,2.17
2023-03-27T06:50:49.117Z,1.27
2023-03-27T06:55:48.296Z,3.10
2023-03-27T06:58:16.687Z,1.83
2023-03-27T07:00:44.567Z,2.15
2023-03-27T07:03:11.983Z,1.48
2023-03-27T07:05:40.911Z,1.55
2023-03-27T07:08:22.470Z,2.95
2023-03-27T07:11:07.469Z,5.05
2023-03-27T07:13:39.025Z,2.80
2023-03-27T07:16:07.117Z,2.22
2023-03-27T07:18:34.269Z,2.22
2023-03-27T07:21:01.480Z,1.58
2023-03-27T07:23:28.510Z,3.10
2023-03-27T07:25:59.773Z,1.55
2023-03-27T07:28:27.236Z,1.95
2023-03-27T07:30:54.281Z,1.23
2023-03-27T07:33:22.130Z,1.75
2023-03-27T07:35:49.377Z,1.70
2023-03-27T07:38:17.553Z,1.38
2023-03-27T07:40:46.581Z,1.65
2023-03-27T07:43:14.246Z,1.60
2023-03-27T07:45:42.120Z,0.85
2023-03-27T07:48:14.119Z,1.27
2023-03-27T07:50:41.091Z,1.42
2023-03-27T07:53:08.353Z,1.08
2023-03-27T07:55:38.117Z,2.30
2023-03-27T07:58:07.023Z,0.95
2023-03-27T08:00:38.891Z,3.25
2023-03-27T08:03:08.707Z,1.23
2023-03-27T08:05:37.173Z,1.13
2023-03-27T08:08:05.027Z,1.15
2023-03-27T08:10:32.512Z,2.17
2023-03-27T08:12:59.626Z,1.85
2023-03-27T08:15:26.862Z,1.23
2023-03-27T08:17:55.328Z,1.65
2023-03-27T08:20:24.019Z,2.72
2023-03-27T08:22:52.960Z,2.45
2023-03-27T08:25:22.524Z,1.30
2023-03-27T08:27:50.106Z,3.78
2023-03-27T08:30:17.590Z,1.73
2023-03-27T08:32:45.111Z,1.58
2023-03-27T08:35:13.611Z,1.00
2023-03-27T08:37:41.645Z,1.70
2023-03-27T08:40:19.702Z,1.05
2023-03-27T08:42:51.834Z,0.90
2023-03-27T08:45:27.597Z,1.30
2023-03-27T08:48:18.170Z,1.38
2023-03-27T08:51:03.735Z,1.10
2023-03-27T08:53:43.730Z,2.00
2023-03-27T08:56:21.381Z,1.20
2023-03-27T08:58:49.169Z,1.05
2023-03-27T09:01:41.668Z,2.72
2023-03-27T09:04:16.076Z,0.90
2023-03-27T09:07:04.356Z,0.57
2023-03-27T09:09:49.898Z,1.67
2023-03-27T09:12:27.558Z,1.63
2023-03-27T09:15:15.503Z,1.42
2023-03-27T09:18:01.730Z,1.73
2023-03-27T09:20:32.437Z,0.82
2023-03-27T09:23:00.523Z,1.15
2023-03-27T09:25:45.425Z,1.52
2023-03-27T09:28:21.713Z,0.70
2023-03-27T09:30:48.902Z,0.95
2023-03-27T09:33:16.096Z,0.80
2023-03-27T09:35:43.220Z,1.30
2023-03-27T09:38:21.899Z,1.00
2023-03-27T09:40:59.308Z,0.73
2023-03-27T09:43:33.562Z,1.10
2023-03-27T09:46:01.764Z,0.98
2023-03-27T09:48:34.927Z,0.90
2023-03-27T09:51:02.543Z,1.05
2023-03-27T09:53:29.869Z,0.93
2023-03-27T09:56:06.308Z,0.73
2023-03-27T09:58:47.002Z,0.93
2023-03-27T10:01:36.208Z,0.90
2023-03-27T10:04:13.888Z,0.98
2023-03-27T10:07:00.163Z,1.10
2023-03-27T10:09:32.280Z,1.10
2023-03-27T10:12:04.781Z,0.82
2023-03-27T10:14:36.196Z,1.25
2023-03-27T10:17:05.429Z,1.15
2023-03-27T10:19:38.679Z,1.60
2023-03-27T10:22:14.765Z,1.10
2023-03-27T10:24:46.210Z,0.90
2023-03-27T10:27:43.366Z,0.80
2023-03-27T10:30:33.679Z,1.38
2023-03-27T10:33:00.918Z,1.25
2023-03-27T10:35:37.004Z,1.65
2023-03-27T10:38:11.150Z,2.35
2023-03-27T10:40:39.617Z,1.20
2023-03-27T10:43:17.135Z,1.13
2023-03-27T10:46:04.642Z,1.25
2023-03-27T10:48:34.478Z,1.33
2023-03-27T10:51:06.290Z,0.98
2023-03-27T10:53:44.619Z,1.20
2023-03-27T10:56:19.065Z,1.40
2023-03-27T10:59:00.934Z,1.73
2023-03-27T11:01:52.595Z,1.55
2023-03-27T11:04:38.953Z,1.20
2023-03-27T11:07:14.330Z,2.33
2023-03-27T11:10:12.087Z,1.52
2023-03-27T11:12:42.866Z,1.95
2023-03-27T11:15:18.185Z,1.25
2023-03-27T11:18:14.373Z,1.45
2023-03-27T11:20:50.743Z,1.65
2023-03-27T11:23:24.719Z,1.92
2023-03-27T11:25:53.608Z,1.77
2023-03-27T11:28:39.671Z,0.85
2023-03-27T11:31:40.232Z,0.95
2023-03-27T11:34:29.506Z,1.08
2023-03-27T11:37:01.089Z,1.15
2023-03-27T11:39:43.111Z,1.73
2023-03-27T11:42:24.229Z,1.98
2023-03-27T11:44:51.845Z,2.05
2023-03-27T11:47:19.723Z,1.20
2023-03-27T11:49:52.675Z,1.15
2023-03-27T11:52:44.555Z,2.13
2023-03-27T11:55:27.317Z,1.33
2023-03-27T11:58:00.188Z,0.90
2023-03-27T12:00:45.993Z,1.10
2023-03-27T12:03:37.486Z,1.48
2023-03-27T12:06:16.829Z,1.17
2023-03-27T12:09:10.308Z,1.55
2023-03-27T12:11:54.755Z,1.73
2023-03-27T12:14:40.646Z,2.03
2023-03-27T12:17:29.356Z,0.85
2023-03-27T12:19:56.438Z,2.30
2023-03-27T12:22:47.244Z,1.08
2023-03-27T12:25:34.211Z,1.25
2023-03-27T12:28:22.702Z,1.80
2023-03-27T12:31:24.703Z,0.60
2023-03-27T12:34:01.680Z,1.13
2023-03-27T12:36:33.694Z,1.17
2023-03-27T12:39:01.040Z,1.55
2023-03-27T12:41:33.624Z,1.05
2023-03-27T12:44:03.748Z,1.02
2023-03-27T12:46:34.915Z,1.25
2023-03-27T12:49:08.346Z,1.15
2023-03-27T12:51:51.945Z,1.30
2023-03-27T12:54:35.389Z,2.55
2023-03-27T12:57:22.159Z,1.08
2023-03-27T12:59:59.037Z,1.98
2023-03-27T13:02:46.296Z,1.85
2023-03-27T13:05:32.051Z,0.80
2023-03-27T13:08:45.158Z,1.08
2023-03-27T13:11:46.131Z,1.60
2023-03-27T13:14:13.068Z,1.80
2023-03-27T13:16:51.918Z,1.15
2023-03-27T13:19:34.762Z,1.63
2023-03-27T13:22:25.014Z,1.60
2023-03-27T13:24:57.304Z,2.25
2023-03-27T13:27:34.771Z,2.58
2023-03-27T13:30:01.917Z,1.42
2023-03-27T13:32:31.964Z,1.92
2023-03-27T13:35:19.305Z,0.90
2023-03-27T13:37:58.237Z,2.08
2023-03-27T13:40:33.283Z,1.73
2023-03-27T13:43:26.790Z,1.45
2023-03-27T13:46:00.259Z,1.60
2023-03-27T13:48:48.514Z,1.65
2023-03-27T13:51:40.078Z,0.93
2023-03-27T13:54:07.675Z,0.75
2023-03-27T13:56:49.824Z,1.58
2023-03-27T13:59:32.071Z,1.77
2023-03-27T14:02:17.952Z,1.45
2023-03-27T14:05:04.623Z,1.77
2023-03-27T14:07:53.429Z,1.60
2023-03-27T14:10:50.687Z,2.25
2023-03-27T14:13:49.696Z,1.45
2023-03-27T14:16:41.317Z,1.70
2023-03-27T14:19:31.965Z,1.98
2023-03-27T14:22:04.889Z,2.25
2023-03-27T14:24:44.361Z,1.50
2023-03-27T14:27:15.998Z,2.63
2023-03-27T14:29:45.175Z,2.42
2023-03-27T14:32:15.919Z,1.80
2023-03-27T14:34:54.220Z,1.20
2023-03-27T14:37:29.958Z,1.08
2023-03-27T14:39:58.728Z,1.73
2023-03-27T14:42:29.150Z,1.00
2023-03-27T14:45:23.950Z,1.92
2023-03-27T14:47:55.929Z,2.25
2023-03-27T14:50:25.240Z,1.40
2023-03-27T14:52:54.183Z,1.67
2023-03-27T14:55:24.345Z,1.20
2023-03-27T14:57:53.678Z,2.63
2023-03-27T15:00:24.576Z,1.58
2023-03-27T15:02:55.116Z,0.77
2023-03-27T15:05:23.173Z,1.52
2023-03-27T15:07:50.585Z,1.50
2023-03-27T15:10:28.121Z,1.55
2023-03-27T15:12:56.505Z,2.15
2023-03-27T15:15:42.699Z,1.55
2023-03-27T15:18:22.497Z,1.02
2023-03-27T15:20:50.837Z,1.10
2023-03-27T15:23:23.072Z,2.50
2023-03-27T15:26:11.464Z,1.02
2023-03-27T15:28:49.921Z,1.45
2023-03-27T15:31:17.609Z,1.02
2023-03-27T15:33:57.410Z,1.50
2023-03-27T15:36:27.806Z,2.65
2023-03-27T15:39:00.694Z,2.15
2023-03-27T15:41:27.723Z,1.52
2023-03-27T15:44:03.708Z,2.65
2023-03-27T15:46:44.037Z,1.55
2023-03-27T15:49:30.455Z,1.63
2023-03-27T15:51:58.774Z,0.75
2023-03-27T15:54:33.995Z,1.30
2023-03-27T15:57:10.218Z,1.45
2023-03-27T15:59:52.870Z,1.85
2023-03-27T16:02:23.405Z,0.95
2023-03-27T16:04:54.429Z,0.80
2023-03-27T16:07:29.181Z,0.70
2023-03-27T16:09:56.169Z,1.40
2023-03-27T16:12:30.973Z,1.42
2023-03-27T16:14:58.848Z,2.35
2023-03-27T16:17:31.869Z,1.20
2023-03-27T16:20:12.588Z,1.80
2023-03-27T16:22:40.577Z,2.45
2023-03-27T16:25:10.047Z,1.58
2023-03-27T16:27:43.580Z,1.77
2023-03-27T16:30:26.454Z,2.67
2023-03-27T16:32:53.924Z,2.38
2023-03-27T16:35:21.085Z,2.17
2023-03-27T16:37:49.464Z,1.45
2023-03-27T16:40:16.519Z,2.25
2023-03-27T16:42:43.433Z,4.07
2023-03-27T16:45:10.766Z,1.38
2023-03-27T16:47:38.023Z,2.15
2023-03-27T16:52:35.889Z,2.60
2023-03-27T16:55:06.431Z,1.80
2023-03-27T16:57:34.495Z,3.28
2023-03-27T17:00:01.506Z,2.95
2023-03-27T17:02:30.756Z,2.40
2023-03-27T17:04:59.064Z,3.65
2023-03-27T17:07:27.537Z,2.35
2023-03-27T17:09:54.806Z,2.17
2023-03-27T17:12:21.789Z,3.08
2023-03-27T17:14:48.906Z,2.78
2023-03-27T17:19:41.881Z,2.50
2023-03-27T17:22:11.692Z,3.88
2023-03-27T17:24:53.377Z,3.70
2023-03-27T17:27:25.459Z,1.73
2023-03-27T17:29:52.465Z,2.30
2023-03-27T17:32:19.561Z,2.25
2023-03-27T17:34:46.603Z,4.15
2023-03-27T17:37:13.612Z,2.72
2023-03-27T17:39:41.087Z,2.63
2023-03-27T17:42:08.108Z,3.47
2023-03-27T17:44:35.336Z,3.83
2023-03-27T17:47:02.478Z,2.45
2023-03-27T17:49:31.382Z,1.98
2023-03-27T17:51:58.455Z,3.35
2023-03-27T17:54:25.386Z,3.20
2023-03-27T17:56:52.416Z,3.70
2023-03-27T17:59:20.978Z,3.28
2023-03-27T18:01:48.177Z,2.75
2023-03-27T18:04:15.104Z,4.15
2023-03-27T18:06:42.055Z,1.90
2023-03-27T18:09:09.748Z,2.40
2023-03-27T18:11:37.077Z,3.47
2023-03-27T18:14:04.334Z,2.70
2023-03-27T18:16:31.493Z,2.53
2023-03-27T18:18:58.433Z,3.38
2023-03-27T18:21:25.574Z,2.45
2023-03-27T18:23:53.918Z,3.72
2023-03-27T18:26:21.050Z,5.72
2023-03-27T18:28:48.044Z,4.00
2023-03-27T18:31:17.762Z,2.92
2023-03-27T18:33:44.922Z,3.20
2023-03-27T18:36:12.134Z,3.88
2023-03-27T18:38:40.604Z,3.30
2023-03-27T18:41:08.680Z,2.70
2023-03-27T18:43:36.232Z,2.90
2023-03-27T18:46:06.446Z,3.50
2023-03-27T18:48:34.372Z,3.97
2023-03-27T18:51:03.855Z,3.95
2023-03-27T18:53:31.478Z,2.95
2023-03-27T18:55:59.107Z,3.03
2023-03-27T18:58:27.769Z,4.00
2023-03-27T19:00:55.771Z,2.70
2023-03-27T19:03:24.781Z,3.10
2023-03-27T19:05:52.924Z,2.55
2023-03-27T19:08:21.166Z,3.00
2023-03-27T19:10:48.454Z,3.95
2023-03-27T19:13:16.049Z,3.88
2023-03-27T19:15:43.318Z,2.10
2023-03-27T19:18:10.414Z,3.20
2023-03-27T19:20:37.495Z,3.55
2023-03-27T19:23:04.901Z,2.88
2023-03-27T19:25:35.405Z,4.43
2023-03-27T19:28:06.319Z,3.72
2023-03-27T19:30:33.664Z,2.92
2023-03-27T19:33:01.055Z,2.55
2023-03-27T19:35:28.168Z,3.53
2023-03-27T19:37:55.232Z,3.13
2023-03-27T19:40:22.313Z,4.57
2023-03-27T19:42:49.344Z,4.95
2023-03-27T19:45:16.512Z,3.90
2023-03-27T19:47:43.780Z,3.35
2023-03-27T19:50:11.492Z,3.58
2023-03-27T19:52:38.506Z,6.25
2023-03-27T19:55:06.796Z,3.47
2023-03-27T19:57:33.753Z,4.38
2023-03-27T20:00:00.860Z,3.42
2023-03-27T20:02:28.090Z,2.88
2023-03-27T20:04:55.090Z,3.42
2023-03-27T20:07:22.175Z,5.20
2023-03-27T20:09:49.171Z,3.95
2023-03-27T20:12:18.328Z,4.45
2023-03-27T20:14:53.940Z,3.13
2023-03-27T20:17:29.217Z,4.80
2023-03-27T20:19:56.277Z,4.18
2023-03-27T20:22:23.294Z,2.83
2023-03-27T20:24:50.275Z,2.60
2023-03-27T20:27:20.014Z,3.10
2023-03-27T20:29:47.872Z,3.40
2023-03-27T20:32:15.099Z,2.25
2023-03-27T20:34:42.202Z,2.45
2023-03-27T20:37:12.038Z,3.78
2023-03-27T20:39:44.749Z,2.45
2023-03-27T20:42:17.505Z,2.38
2023-03-27T20:44:45.242Z,1.80
2023-03-27T20:47:13.482Z,2.47
2023-03-27T20:49:44.572Z,2.63
2023-03-27T20:52:19.753Z,3.72
2023-03-27T20:54:47.970Z,2.42
2023-03-27T20:57:15.211Z,3.83
2023-03-27T20:59:47.595Z,4.07
2023-03-27T21:02:19.248Z,3.03
2023-03-27T21:04:47.439Z,3.95
2023-03-27T21:07:15.863Z,2.70
2023-03-27T21:09:43.117Z,2.60
2023-03-27T21:12:10.291Z,4.88
2023-03-27T21:14:37.329Z,3.05
2023-03-27T21:17:04.437Z,3.22
2023-03-27T21:19:31.643Z,2.15
2023-03-27T21:21:58.594Z,3.00
2023-03-27T21:24:25.728Z,2.58
2023-03-27T21:26:52.814Z,2.67
2023-03-27T21:29:21.022Z,2.85
2023-03-27T21:31:48.080Z,2.08
2023-03-27T21:34:15.608Z,2.35
2023-03-27T21:36:42.567Z,2.67
2023-03-27T21:39:10.128Z,3.75
2023-03-27T21:41:37.268Z,2.83
2023-03-27T21:44:04.358Z,4.15
2023-03-27T21:46:31.447Z,4.00
2023-03-27T21:48:59.055Z,1.98
2023-03-27T21:51:29.459Z,3.70
2023-03-27T21:53:56.492Z,3.53
2023-03-27T21:56:23.448Z,2.75
2023-03-27T21:58:50.375Z,3.67
2023-03-27T22:01:17.685Z,4.22
2023-03-27T22:03:44.757Z,3.83
2023-03-27T22:06:13.389Z,3.30
2023-03-27T22:08:42.239Z,3.85
2023-03-27T22:11:10.920Z,2.97
2023-03-27T22:13:39.076Z,3.08
2023-03-27T22:16:12.178Z,2.83
2023-03-27T22:18:39.818Z,2.30
2023-03-27T22:21:18.829Z,2.22
2023-03-27T22:23:46.181Z,2.65
2023-03-27T22:26:13.423Z,2.25
2023-03-27T22:28:40.427Z,3.03
2023-03-27T22:31:07.929Z,2.88
2023-03-27T22:33:36.500Z,4.18
2023-03-27T22:36:04.867Z,1.75
2023-03-27T22:38:32.854Z,3.40
2023-03-27T22:41:00.511Z,2.63
2023-03-27T22:43:31.083Z,2.75
2023-03-27T22:46:14.955Z,3.40
2023-03-27T22:48:43.226Z,2.42
2023-03-27T22:51:12.110Z,3.17
2023-03-27T22:53:39.739Z,2.03
2023-03-27T22:56:07.526Z,3.15
2023-03-27T22:58:34.521Z,3.63
2023-03-27T23:01:01.527Z,2.28
2023-03-27T23:03:28.951Z,3.20
2023-03-27T23:05:56.384Z,2.85
2023-03-27T23:08:27.293Z,2.55
2023-03-27T23:11:03.445Z,3.00
2023-03-27T23:13:34.282Z,3.55
2023-03-27T23:16:01.700Z,2.25
2023-03-27T23:18:28.921Z,1.85
2023-03-27T23:21:03.769Z,2.15
2023-03-27T23:23:32.077Z,2.50
2023-03-27T23:25:59.339Z,2.38
2023-03-27T23:28:31.047Z,1.92
2023-03-27T23:31:00.387Z,2.65
2023-03-27T23:33:28.793Z,2.92
2023-03-27T23:36:02.786Z,1.90
2023-03-27T23:38:30.416Z,2.95
2023-03-27T23:41:00.732Z,2.53
2023-03-27T23:43:28.942Z,3.10
2023-03-27T23:45:56.346Z,2.47
2023-03-27T23:48:23.601Z,1.80
2023-03-27T23:50:51.889Z,4.90
2023-03-27T23:53:20.343Z,1.60
2023-03-27T23:55:47.511Z,3.42
2023-03-27T23:58:14.511Z,2.25
